sensor_id;sensor_type;location;lat;lon;timestamp;pressure;altitude;pressure_sealevel;temperature;humidity
50105;BME280;47690;39.202;-77.198;2023-02-16T00:00:32;99907.72;;;46.16;5.84
50105;BME280;47690;39.202;-77.198;2023-02-16T00:03:37;99918.28;;;45.92;6.16
50105;BME280;47690;39.202;-77.198;2023-02-16T00:06:43;99926.38;;;45.66;6.69
50105;BME280;47690;39.202;-77.198;2023-02-16T00:09:51;99919.84;;;45.67;6.66
50105;BME280;47690;39.202;-77.198;2023-02-16T00:12:55;99923.06;;;45.48;6.40
50105;BME280;47690;39.202;-77.198;2023-02-16T00:16:24;99935.72;;;45.91;6.38
50105;BME280;47690;39.202;-77.198;2023-02-16T00:19:48;99929.78;;;46.09;6.50
50105;BME280;47690;39.202;-77.198;2023-02-16T00:22:51;99926.50;;;46.02;6.37
50105;BME280;47690;39.202;-77.198;2023-02-16T00:26:04;99935.72;;;45.96;6.22
50105;BME280;47690;39.202;-77.198;2023-02-16T00:32:32;99938.81;;;46.20;6.10
50105;BME280;47690;39.202;-77.198;2023-02-16T00:35:35;99937.09;;;45.99;6.04
50105;BME280;47690;39.202;-77.198;2023-02-16T00:39:11;99939.94;;;45.61;6.51
50105;BME280;47690;39.202;-77.198;2023-02-16T00:42:36;99930.97;;;45.65;6.35
50105;BME280;47690;39.202;-77.198;2023-02-16T00:46:14;99943.44;;;46.92;5.87
50105;BME280;47690;39.202;-77.198;2023-02-16T00:50:15;99943.25;;;47.76;5.45
50105;BME280;47690;39.202;-77.198;2023-02-16T00:54:13;99946.72;;;46.43;6.00
50105;BME280;47690;39.202;-77.198;2023-02-16T00:58:30;99944.81;;;46.38;6.11
50105;BME280;47690;39.202;-77.198;2023-02-16T01:02:04;99951.06;;;46.49;5.62
50105;BME280;47690;39.202;-77.198;2023-02-16T01:05:32;99944.00;;;47.86;4.97
50105;BME280;47690;39.202;-77.198;2023-02-16T01:08:36;99953.28;;;46.52;5.73
50105;BME280;47690;39.202;-77.198;2023-02-16T01:12:07;99959.25;;;46.38;5.68
50105;BME280;47690;39.202;-77.198;2023-02-16T01:15:15;99959.44;;;46.16;5.76
50105;BME280;47690;39.202;-77.198;2023-02-16T01:18:32;99964.34;;;46.04;5.68
50105;BME280;47690;39.202;-77.198;2023-02-16T01:21:36;99965.66;;;45.96;6.50
50105;BME280;47690;39.202;-77.198;2023-02-16T01:25:10;99971.69;;;46.19;5.96
50105;BME280;47690;39.202;-77.198;2023-02-16T01:28:44;99985.28;;;46.03;6.20
50105;BME280;47690;39.202;-77.198;2023-02-16T01:31:52;99981.13;;;45.85;6.27
50105;BME280;47690;39.202;-77.198;2023-02-16T01:35:04;99986.28;;;45.81;6.38
50105;BME280;47690;39.202;-77.198;2023-02-16T01:38:21;99999.09;;;45.86;6.11
50105;BME280;47690;39.202;-77.198;2023-02-16T01:45:36;99998.59;;;46.00;5.76
50105;BME280;47690;39.202;-77.198;2023-02-16T01:48:48;100014.63;;;45.86;6.23
50105;BME280;47690;39.202;-77.198;2023-02-16T01:55:45;100023.63;;;46.02;6.00
50105;BME280;47690;39.202;-77.198;2023-02-16T01:59:02;100027.97;;;45.92;6.02
50105;BME280;47690;39.202;-77.198;2023-02-16T02:02:20;100030.31;;;45.78;6.45
50105;BME280;47690;39.202;-77.198;2023-02-16T02:05:33;100022.69;;;46.55;6.21
50105;BME280;47690;39.202;-77.198;2023-02-16T02:15:56;100030.97;;;47.07;5.53
50105;BME280;47690;39.202;-77.198;2023-02-16T02:19:04;100040.34;;;46.26;6.30
50105;BME280;47690;39.202;-77.198;2023-02-16T02:22:35;100043.44;;;45.87;6.61
50105;BME280;47690;39.202;-77.198;2023-02-16T02:41:17;100040.25;;;46.05;6.52
50105;BME280;47690;39.202;-77.198;2023-02-16T02:45:22;100060.34;;;45.94;6.41
50105;BME280;47690;39.202;-77.198;2023-02-16T02:48:33;100060.69;;;45.60;6.87
50105;BME280;47690;39.202;-77.198;2023-02-16T02:51:40;100065.72;;;45.40;6.35
50105;BME280;47690;39.202;-77.198;2023-02-16T02:54:44;100065.88;;;45.28;6.98
50105;BME280;47690;39.202;-77.198;2023-02-16T02:58:12;100069.81;;;45.43;6.56
50105;BME280;47690;39.202;-77.198;2023-02-16T03:02:05;100074.56;;;45.63;6.42
50105;BME280;47690;39.202;-77.198;2023-02-16T03:05:08;100079.44;;;46.78;6.37
50105;BME280;47690;39.202;-77.198;2023-02-16T03:08:12;100071.81;;;47.12;5.99
50105;BME280;47690;39.202;-77.198;2023-02-16T03:11:27;100084.88;;;47.56;5.79
50105;BME280;47690;39.202;-77.198;2023-02-16T03:15:00;100082.41;;;45.97;6.68
50105;BME280;47690;39.202;-77.198;2023-02-16T03:18:15;100079.34;;;46.53;5.90
50105;BME280;47690;39.202;-77.198;2023-02-16T03:21:41;100079.41;;;46.73;6.40
50105;BME280;47690;39.202;-77.198;2023-02-16T03:25:43;100084.28;;;46.61;6.33
50105;BME280;47690;39.202;-77.198;2023-02-16T03:28:56;100082.09;;;46.58;6.11
50105;BME280;47690;39.202;-77.198;2023-02-16T03:32:16;100082.97;;;46.74;5.88
50105;BME280;47690;39.202;-77.198;2023-02-16T03:35:34;100080.78;;;46.71;6.42
50105;BME280;47690;39.202;-77.198;2023-02-16T03:38:44;100081.53;;;46.56;6.42
50105;BME280;47690;39.202;-77.198;2023-02-16T03:41:53;100085.84;;;46.46;6.55
50105;BME280;47690;39.202;-77.198;2023-02-16T03:45:34;100089.00;;;47.33;6.09
50105;BME280;47690;39.202;-77.198;2023-02-16T03:48:48;100078.34;;;46.80;5.97
50105;BME280;47690;39.202;-77.198;2023-02-16T03:52:03;100074.75;;;46.58;6.29
50105;BME280;47690;39.202;-77.198;2023-02-16T03:55:19;100083.38;;;48.06;5.67
50105;BME280;47690;39.202;-77.198;2023-02-16T03:58:32;100093.88;;;46.89;5.94
50105;BME280;47690;39.202;-77.198;2023-02-16T04:01:39;100087.50;;;46.42;5.96
50105;BME280;47690;39.202;-77.198;2023-02-16T04:04:36;100088.19;;;46.17;6.68
50105;BME280;47690;39.202;-77.198;2023-02-16T04:07:52;100084.63;;;46.06;6.20
50105;BME280;47690;39.202;-77.198;2023-02-16T04:11:11;100095.25;;;46.13;6.40
50105;BME280;47690;39.202;-77.198;2023-02-16T04:14:32;100092.13;;;46.42;6.19
50105;BME280;47690;39.202;-77.198;2023-02-16T04:17:44;100089.13;;;46.43;6.53
50105;BME280;47690;39.202;-77.198;2023-02-16T04:20:51;100090.69;;;46.23;6.50
50105;BME280;47690;39.202;-77.198;2023-02-16T04:24:03;100091.44;;;46.14;6.82
50105;BME280;47690;39.202;-77.198;2023-02-16T04:27:39;100093.56;;;46.75;6.38
50105;BME280;47690;39.202;-77.198;2023-02-16T04:31:04;100092.91;;;46.32;6.56
50105;BME280;47690;39.202;-77.198;2023-02-16T04:34:03;100094.13;;;46.03;6.35
50105;BME280;47690;39.202;-77.198;2023-02-16T04:37:10;100094.00;;;46.31;6.54
50105;BME280;47690;39.202;-77.198;2023-02-16T04:40:35;100103.13;;;46.04;6.67
50105;BME280;47690;39.202;-77.198;2023-02-16T04:43:43;100108.00;;;45.96;6.26
50105;BME280;47690;39.202;-77.198;2023-02-16T04:46:55;100111.47;;;45.92;6.35
50105;BME280;47690;39.202;-77.198;2023-02-16T04:50:02;100110.63;;;45.81;6.47
50105;BME280;47690;39.202;-77.198;2023-02-16T04:53:11;100109.94;;;46.11;6.65
50105;BME280;47690;39.202;-77.198;2023-02-16T04:56:20;100106.13;;;46.13;6.84
50105;BME280;47690;39.202;-77.198;2023-02-16T04:59:35;100109.91;;;46.06;6.83
50105;BME280;47690;39.202;-77.198;2023-02-16T05:02:44;100108.78;;;45.97;6.62
50105;BME280;47690;39.202;-77.198;2023-02-16T05:05:51;100115.53;;;45.84;7.00
50105;BME280;47690;39.202;-77.198;2023-02-16T05:09:06;100115.25;;;45.80;6.48
50105;BME280;47690;39.202;-77.198;2023-02-16T05:12:11;100118.16;;;45.74;6.40
50105;BME280;47690;39.202;-77.198;2023-02-16T05:16:00;100118.00;;;45.91;6.41
50105;BME280;47690;39.202;-77.198;2023-02-16T05:19:04;100124.88;;;45.61;6.64
50105;BME280;47690;39.202;-77.198;2023-02-16T05:22:18;100125.94;;;45.60;6.49
50105;BME280;47690;39.202;-77.198;2023-02-16T05:25:35;100126.19;;;45.58;6.55
50105;BME280;47690;39.202;-77.198;2023-02-16T05:28:39;100134.06;;;45.92;7.04
50105;BME280;47690;39.202;-77.198;2023-02-16T05:32:07;100136.34;;;45.68;6.71
50105;BME280;47690;39.202;-77.198;2023-02-16T05:35:04;100131.88;;;45.51;6.97
50105;BME280;47690;39.202;-77.198;2023-02-16T05:38:03;100134.34;;;45.53;7.04
50105;BME280;47690;39.202;-77.198;2023-02-16T05:41:11;100136.28;;;45.58;6.58
50105;BME280;47690;39.202;-77.198;2023-02-16T05:44:25;100145.59;;;45.67;6.54
50105;BME280;47690;39.202;-77.198;2023-02-16T05:47:32;100135.78;;;45.66;6.84
50105;BME280;47690;39.202;-77.198;2023-02-16T05:50:43;100137.38;;;45.56;6.81
50105;BME280;47690;39.202;-77.198;2023-02-16T05:53:51;100133.91;;;45.72;7.07
50105;BME280;47690;39.202;-77.198;2023-02-16T05:56:55;100130.19;;;45.45;6.94
50105;BME280;47690;39.202;-77.198;2023-02-16T06:00:20;100128.75;;;45.75;6.62
50105;BME280;47690;39.202;-77.198;2023-02-16T06:03:32;100131.97;;;46.05;6.44
50105;BME280;47690;39.202;-77.198;2023-02-16T06:06:39;100133.50;;;45.85;6.75
50105;BME280;47690;39.202;-77.198;2023-02-16T06:09:43;100132.06;;;45.77;6.59
50105;BME280;47690;39.202;-77.198;2023-02-16T06:12:51;100131.44;;;45.65;6.52
50105;BME280;47690;39.202;-77.198;2023-02-16T06:15:56;100132.53;;;45.36;6.92
50105;BME280;47690;39.202;-77.198;2023-02-16T06:19:05;100127.56;;;45.23;7.40
50105;BME280;47690;39.202;-77.198;2023-02-16T06:22:08;100131.31;;;44.94;7.06
50105;BME280;47690;39.202;-77.198;2023-02-16T06:25:32;100131.59;;;44.93;7.45
50105;BME280;47690;39.202;-77.198;2023-02-16T06:28:32;100129.44;;;44.67;7.19
50105;BME280;47690;39.202;-77.198;2023-02-16T06:31:29;100131.88;;;44.46;7.40
50105;BME280;47690;39.202;-77.198;2023-02-16T06:34:32;100130.09;;;44.35;7.51
50105;BME280;47690;39.202;-77.198;2023-02-16T06:37:36;100143.75;;;44.01;7.60
50105;BME280;47690;39.202;-77.198;2023-02-16T06:41:07;100142.00;;;44.12;7.50
50105;BME280;47690;39.202;-77.198;2023-02-16T06:44:35;100143.09;;;43.76;7.50
50105;BME280;47690;39.202;-77.198;2023-02-16T06:47:39;100148.94;;;43.68;7.28
50105;BME280;47690;39.202;-77.198;2023-02-16T06:50:43;100137.91;;;43.40;7.87
50105;BME280;47690;39.202;-77.198;2023-02-16T06:53:51;100149.47;;;43.36;8.14
50105;BME280;47690;39.202;-77.198;2023-02-16T06:57:15;100145.00;;;43.30;7.78
50105;BME280;47690;39.202;-77.198;2023-02-16T07:00:19;100150.59;;;43.23;7.80
50105;BME280;47690;39.202;-77.198;2023-02-16T07:03:23;100146.78;;;43.07;7.85
50105;BME280;47690;39.202;-77.198;2023-02-16T07:06:30;100148.72;;;42.29;8.15
50105;BME280;47690;39.202;-77.198;2023-02-16T07:09:36;100147.53;;;42.49;8.33
50105;BME280;47690;39.202;-77.198;2023-02-16T07:12:43;100157.69;;;42.18;8.45
50105;BME280;47690;39.202;-77.198;2023-02-16T07:15:51;100153.66;;;42.44;8.10
50105;BME280;47690;39.202;-77.198;2023-02-16T07:19:03;100156.16;;;41.13;8.59
50105;BME280;47690;39.202;-77.198;2023-02-16T07:22:09;100157.97;;;41.19;9.12
50105;BME280;47690;39.202;-77.198;2023-02-16T07:25:25;100166.72;;;41.76;8.78
50105;BME280;47690;39.202;-77.198;2023-02-16T07:28:35;100149.97;;;40.56;9.13
50105;BME280;47690;39.202;-77.198;2023-02-16T07:32:03;100150.28;;;40.67;9.10
50105;BME280;47690;39.202;-77.198;2023-02-16T07:35:08;100152.03;;;40.61;8.81
50105;BME280;47690;39.202;-77.198;2023-02-16T07:38:12;100141.00;;;40.44;9.02
50105;BME280;47690;39.202;-77.198;2023-02-16T07:41:40;100148.25;;;40.43;8.99
50105;BME280;47690;39.202;-77.198;2023-02-16T07:44:43;100144.00;;;40.36;8.90
50105;BME280;47690;39.202;-77.198;2023-02-16T07:47:39;100145.91;;;40.28;9.13
50105;BME280;47690;39.202;-77.198;2023-02-16T07:51:08;100141.22;;;40.61;9.19
50105;BME280;47690;39.202;-77.198;2023-02-16T07:54:12;100142.41;;;41.33;8.32
50105;BME280;47690;39.202;-77.198;2023-02-16T07:57:25;100150.31;;;41.47;8.48
50105;BME280;47690;39.202;-77.198;2023-02-16T08:00:35;100157.00;;;41.44;8.54
50105;BME280;47690;39.202;-77.198;2023-02-16T08:03:40;100153.00;;;40.67;8.61
50105;BME280;47690;39.202;-77.198;2023-02-16T08:06:45;100166.53;;;39.97;9.35
50105;BME280;47690;39.202;-77.198;2023-02-16T08:09:51;100161.72;;;39.74;9.28
50105;BME280;47690;39.202;-77.198;2023-02-16T08:12:55;100153.09;;;39.26;9.41
50105;BME280;47690;39.202;-77.198;2023-02-16T08:16:01;100150.59;;;40.40;9.02
50105;BME280;47690;39.202;-77.198;2023-02-16T08:19:08;100142.91;;;39.93;9.15
50105;BME280;47690;39.202;-77.198;2023-02-16T08:22:12;100143.34;;;39.32;9.40
50105;BME280;47690;39.202;-77.198;2023-02-16T08:25:25;100150.69;;;39.11;9.52
50105;BME280;47690;39.202;-77.198;2023-02-16T08:28:55;100148.41;;;39.15;9.65
50105;BME280;47690;39.202;-77.198;2023-02-16T08:32:01;100147.69;;;38.87;9.63
50105;BME280;47690;39.202;-77.198;2023-02-16T08:35:09;100139.88;;;38.72;9.61
50105;BME280;47690;39.202;-77.198;2023-02-16T08:38:13;100125.41;;;38.60;9.99
50105;BME280;47690;39.202;-77.198;2023-02-16T08:41:19;100138.75;;;39.32;9.51
50105;BME280;47690;39.202;-77.198;2023-02-16T08:44:24;100135.78;;;38.63;9.73
50105;BME280;47690;39.202;-77.198;2023-02-16T08:47:20;100132.06;;;38.37;9.46
50105;BME280;47690;39.202;-77.198;2023-02-16T08:50:24;100146.16;;;38.39;9.81
50105;BME280;47690;39.202;-77.198;2023-02-16T08:53:28;100145.13;;;38.26;9.84
50105;BME280;47690;39.202;-77.198;2023-02-16T08:56:33;100140.81;;;38.25;10.06
50105;BME280;47690;39.202;-77.198;2023-02-16T08:59:40;100136.22;;;38.26;9.83
50105;BME280;47690;39.202;-77.198;2023-02-16T09:03:12;100143.88;;;38.43;9.58
50105;BME280;47690;39.202;-77.198;2023-02-16T09:06:20;100142.44;;;38.33;9.92
50105;BME280;47690;39.202;-77.198;2023-02-16T09:09:48;100151.31;;;38.27;9.95
50105;BME280;47690;39.202;-77.198;2023-02-16T09:12:49;100149.44;;;38.34;10.04
50105;BME280;47690;39.202;-77.198;2023-02-16T09:15:53;100155.84;;;38.47;9.64
50105;BME280;47690;39.202;-77.198;2023-02-16T09:18:52;100153.22;;;38.13;10.02
50105;BME280;47690;39.202;-77.198;2023-02-16T09:21:52;100159.19;;;37.95;9.78
50105;BME280;47690;39.202;-77.198;2023-02-16T09:24:56;100149.47;;;38.01;9.97
50105;BME280;47690;39.202;-77.198;2023-02-16T09:28:03;100155.25;;;37.91;10.13
50105;BME280;47690;39.202;-77.198;2023-02-16T09:31:13;100160.66;;;37.84;10.01
50105;BME280;47690;39.202;-77.198;2023-02-16T09:34:29;100182.53;;;37.74;9.77
50105;BME280;47690;39.202;-77.198;2023-02-16T09:37:37;100182.09;;;37.57;10.10
50105;BME280;47690;39.202;-77.198;2023-02-16T09:40:39;100183.72;;;37.44;9.83
50105;BME280;47690;39.202;-77.198;2023-02-16T09:43:51;100184.56;;;37.52;9.98
50105;BME280;47690;39.202;-77.198;2023-02-16T09:47:00;100191.34;;;37.41;10.44
50105;BME280;47690;39.202;-77.198;2023-02-16T09:50:16;100194.31;;;37.60;9.84
50105;BME280;47690;39.202;-77.198;2023-02-16T09:53:43;100197.41;;;37.63;9.87
50105;BME280;47690;39.202;-77.198;2023-02-16T09:56:57;100193.69;;;37.64;10.13
50105;BME280;47690;39.202;-77.198;2023-02-16T10:03:35;100182.47;;;37.40;9.94
50105;BME280;47690;39.202;-77.198;2023-02-16T10:07:15;100186.69;;;37.70;10.21
50105;BME280;47690;39.202;-77.198;2023-02-16T10:10:32;100182.66;;;37.39;9.87
50105;BME280;47690;39.202;-77.198;2023-02-16T10:13:51;100185.09;;;37.27;10.12
50105;BME280;47690;39.202;-77.198;2023-02-16T10:20:12;100201.97;;;37.07;10.50
50105;BME280;47690;39.202;-77.198;2023-02-16T10:26:50;100200.22;;;37.35;10.05
50105;BME280;47690;39.202;-77.198;2023-02-16T10:30:32;100191.19;;;37.56;10.33
50105;BME280;47690;39.202;-77.198;2023-02-16T10:47:37;100186.41;;;36.96;10.33
50105;BME280;47690;39.202;-77.198;2023-02-16T10:51:02;100193.00;;;36.93;10.05
50105;BME280;47690;39.202;-77.198;2023-02-16T10:54:31;100171.13;;;36.96;10.20
50105;BME280;47690;39.202;-77.198;2023-02-16T10:57:32;100177.91;;;36.85;10.31
50105;BME280;47690;39.202;-77.198;2023-02-16T11:03:51;100168.81;;;36.86;10.19
50105;BME280;47690;39.202;-77.198;2023-02-16T11:07:25;100175.16;;;37.14;10.36
50105;BME280;47690;39.202;-77.198;2023-02-16T11:10:42;100180.00;;;36.97;10.53
50105;BME280;47690;39.202;-77.198;2023-02-16T11:14:20;100179.72;;;37.13;10.36
50105;BME280;47690;39.202;-77.198;2023-02-16T11:17:46;100162.06;;;37.04;9.94
50105;BME280;47690;39.202;-77.198;2023-02-16T11:21:11;100160.97;;;36.85;10.20
50105;BME280;47690;39.202;-77.198;2023-02-16T11:24:22;100159.44;;;36.69;10.14
50105;BME280;47690;39.202;-77.198;2023-02-16T11:27:29;100163.19;;;36.74;10.45
50105;BME280;47690;39.202;-77.198;2023-02-16T11:30:40;100165.94;;;36.88;10.55
50105;BME280;47690;39.202;-77.198;2023-02-16T11:37:05;100171.78;;;36.63;10.27
50105;BME280;47690;39.202;-77.198;2023-02-16T11:40:33;100174.81;;;36.88;10.65
50105;BME280;47690;39.202;-77.198;2023-02-16T11:43:36;100175.22;;;36.85;10.62
50105;BME280;47690;39.202;-77.198;2023-02-16T11:46:39;100169.16;;;36.70;10.53
50105;BME280;47690;39.202;-77.198;2023-02-16T11:49:43;100183.69;;;36.54;10.34
50105;BME280;47690;39.202;-77.198;2023-02-16T11:53:15;100186.53;;;36.52;10.56
50105;BME280;47690;39.202;-77.198;2023-02-16T11:56:24;100180.56;;;36.50;10.80
50105;BME280;47690;39.202;-77.198;2023-02-16T11:59:38;100182.81;;;36.46;10.38
50105;BME280;47690;39.202;-77.198;2023-02-16T12:07:07;100159.28;;;36.77;10.57
50105;BME280;47690;39.202;-77.198;2023-02-16T12:10:41;100159.59;;;36.60;10.68
50105;BME280;47690;39.202;-77.198;2023-02-16T12:28:05;100181.13;;;36.67;10.09
50105;BME280;47690;39.202;-77.198;2023-02-16T12:45:23;100147.16;;;36.53;10.29
50105;BME280;47690;39.202;-77.198;2023-02-16T12:48:56;100139.72;;;36.55;10.80
50105;BME280;47690;39.202;-77.198;2023-02-16T12:52:10;100145.16;;;36.61;10.53
50105;BME280;47690;39.202;-77.198;2023-02-16T12:55:18;100145.72;;;36.57;10.52
50105;BME280;47690;39.202;-77.198;2023-02-16T12:58:36;100149.53;;;36.62;10.50
50105;BME280;47690;39.202;-77.198;2023-02-16T13:01:51;100151.38;;;36.69;10.70
50105;BME280;47690;39.202;-77.198;2023-02-16T13:05:29;100149.50;;;37.04;10.19
50105;BME280;47690;39.202;-77.198;2023-02-16T13:08:55;100158.41;;;37.12;10.62
50105;BME280;47690;39.202;-77.198;2023-02-16T13:12:30;100159.88;;;37.14;10.26
50105;BME280;47690;39.202;-77.198;2023-02-16T13:15:59;100161.31;;;37.10;10.75
50105;BME280;47690;39.202;-77.198;2023-02-16T13:19:17;100159.88;;;37.14;10.48
50105;BME280;47690;39.202;-77.198;2023-02-16T13:22:28;100151.63;;;37.23;10.49
50105;BME280;47690;39.202;-77.198;2023-02-16T13:32:59;100133.78;;;37.77;10.62
50105;BME280;47690;39.202;-77.198;2023-02-16T13:46:32;100208.44;;;38.36;10.00
50105;BME280;47690;39.202;-77.198;2023-02-16T13:49:40;100286.16;;;37.90;10.43
50105;BME280;47690;39.202;-77.198;2023-02-16T13:52:48;100283.69;;;37.95;10.49
50105;BME280;47690;39.202;-77.198;2023-02-16T13:56:21;100258.09;;;38.13;10.29
50105;BME280;47690;39.202;-77.198;2023-02-16T13:59:55;100259.94;;;38.39;10.16
50105;BME280;47690;39.202;-77.198;2023-02-16T14:06:35;100249.59;;;38.50;10.36
50105;BME280;47690;39.202;-77.198;2023-02-16T14:10:12;100256.19;;;38.74;10.40
50105;BME280;47690;39.202;-77.198;2023-02-16T14:13:26;100235.72;;;38.73;10.14
50105;BME280;47690;39.202;-77.198;2023-02-16T14:20:28;100230.78;;;39.29;10.32
50105;BME280;47690;39.202;-77.198;2023-02-16T14:23:39;100224.06;;;39.06;10.51
50105;BME280;47690;39.202;-77.198;2023-02-16T14:26:56;100207.22;;;39.18;10.78
50105;BME280;47690;39.202;-77.198;2023-02-16T14:34:04;100211.38;;;39.59;10.81
50105;BME280;47690;39.202;-77.198;2023-02-16T14:41:04;100202.81;;;39.69;10.51
50105;BME280;47690;39.202;-77.198;2023-02-16T14:44:40;100195.97;;;39.99;10.61
50105;BME280;47690;39.202;-77.198;2023-02-16T14:58:46;100195.84;;;40.56;10.28
50105;BME280;47690;39.202;-77.198;2023-02-16T15:01:56;100194.28;;;40.49;10.09
50105;BME280;47690;39.202;-77.198;2023-02-16T15:05:39;100198.81;;;40.55;10.43
50105;BME280;47690;39.202;-77.198;2023-02-16T15:08:36;100213.84;;;40.44;10.86
50105;BME280;47690;39.202;-77.198;2023-02-16T15:11:37;100203.88;;;40.45;10.65
50105;BME280;47690;39.202;-77.198;2023-02-16T15:15:06;100178.25;;;40.73;10.61
50105;BME280;47690;39.202;-77.198;2023-02-16T15:18:21;100190.47;;;40.75;10.72
50105;BME280;47690;39.202;-77.198;2023-02-16T15:21:26;100176.31;;;40.99;10.54
50105;BME280;47690;39.202;-77.198;2023-02-16T15:24:36;100152.41;;;41.14;10.47
50105;BME280;47690;39.202;-77.198;2023-02-16T15:28:20;100140.09;;;41.61;9.98
50105;BME280;47690;39.202;-77.198;2023-02-16T15:31:31;100142.31;;;41.52;10.28
50105;BME280;47690;39.202;-77.198;2023-02-16T15:34:39;100134.44;;;41.50;10.21
50105;BME280;47690;39.202;-77.198;2023-02-16T15:37:44;100116.31;;;41.27;10.68
50105;BME280;47690;39.202;-77.198;2023-02-16T15:40:57;100110.66;;;41.29;10.96
50105;BME280;47690;39.202;-77.198;2023-02-16T15:44:29;100105.06;;;41.42;10.97
50105;BME280;47690;39.202;-77.198;2023-02-16T15:47:35;100090.00;;;41.46;10.63
50105;BME280;47690;39.202;-77.198;2023-02-16T15:51:13;100081.84;;;41.89;10.78
50105;BME280;47690;39.202;-77.198;2023-02-16T15:54:33;100064.75;;;42.24;10.29
50105;BME280;47690;39.202;-77.198;2023-02-16T15:57:52;100040.84;;;42.33;10.39
50105;BME280;47690;39.202;-77.198;2023-02-16T16:01:26;100031.88;;;42.73;10.51
50105;BME280;47690;39.202;-77.198;2023-02-16T16:08:44;100008.22;;;43.15;10.08
50105;BME280;47690;39.202;-77.198;2023-02-16T16:11:54;100024.31;;;43.05;10.27
50105;BME280;47690;39.202;-77.198;2023-02-16T16:15:24;100008.72;;;43.46;10.28
50105;BME280;47690;39.202;-77.198;2023-02-16T16:21:55;99989.56;;;44.42;9.69
50105;BME280;47690;39.202;-77.198;2023-02-16T16:25:43;99981.41;;;44.37;9.65
50105;BME280;47690;39.202;-77.198;2023-02-16T16:28:48;99966.88;;;44.04;10.12
50105;BME280;47690;39.202;-77.198;2023-02-16T16:31:52;99952.72;;;43.97;9.73
50105;BME280;47690;39.202;-77.198;2023-02-16T16:35:21;99948.53;;;44.39;10.12
50105;BME280;47690;39.202;-77.198;2023-02-16T16:38:51;99933.13;;;43.72;10.09
50105;BME280;47690;39.202;-77.198;2023-02-16T16:42:17;99932.00;;;45.00;9.75
50105;BME280;47690;39.202;-77.198;2023-02-16T16:48:32;99935.75;;;43.84;10.12
50105;BME280;47690;39.202;-77.198;2023-02-16T16:51:39;99936.19;;;43.98;10.10
50105;BME280;47690;39.202;-77.198;2023-02-16T16:54:44;99964.63;;;43.96;10.06
50105;BME280;47690;39.202;-77.198;2023-02-16T16:58:09;99984.09;;;44.15;9.86
50105;BME280;47690;39.202;-77.198;2023-02-16T17:01:13;99995.00;;;44.42;9.58
50105;BME280;47690;39.202;-77.198;2023-02-16T17:04:24;100011.69;;;44.29;10.36
50105;BME280;47690;39.202;-77.198;2023-02-16T17:07:51;100068.75;;;44.34;10.06
50105;BME280;47690;39.202;-77.198;2023-02-16T17:11:52;100138.63;;;44.21;10.50
50105;BME280;47690;39.202;-77.198;2023-02-16T17:20:23;100114.75;;;44.46;9.70
50105;BME280;47690;39.202;-77.198;2023-02-16T17:23:35;100089.22;;;43.80;10.24
50105;BME280;47690;39.202;-77.198;2023-02-16T17:26:42;100078.91;;;44.94;9.94
50105;BME280;47690;39.202;-77.198;2023-02-16T17:29:49;100066.16;;;44.22;10.52
50105;BME280;47690;39.202;-77.198;2023-02-16T17:33:21;100052.91;;;44.48;10.24
50105;BME280;47690;39.202;-77.198;2023-02-16T17:36:44;100054.75;;;44.97;10.26
50105;BME280;47690;39.202;-77.198;2023-02-16T17:39:40;100047.59;;;45.51;9.47
50105;BME280;47690;39.202;-77.198;2023-02-16T17:42:36;100050.00;;;44.10;10.16
50105;BME280;47690;39.202;-77.198;2023-02-16T17:45:45;100034.84;;;43.52;10.80
50105;BME280;47690;39.202;-77.198;2023-02-16T17:48:51;100009.34;;;43.71;10.90
50105;BME280;47690;39.202;-77.198;2023-02-16T17:51:54;99989.97;;;43.10;11.39
50105;BME280;47690;39.202;-77.198;2023-02-16T17:54:58;99973.50;;;43.12;11.22
50105;BME280;47690;39.202;-77.198;2023-02-16T17:58:02;99948.63;;;42.98;11.17
50105;BME280;47690;39.202;-77.198;2023-02-16T18:01:18;99943.03;;;43.05;11.36
50105;BME280;47690;39.202;-77.198;2023-02-16T18:04:23;99908.16;;;43.08;11.35
50105;BME280;47690;39.202;-77.198;2023-02-16T18:07:29;99940.91;;;43.63;11.05
50105;BME280;47690;39.202;-77.198;2023-02-16T18:10:59;99984.84;;;43.65;11.03
50105;BME280;47690;39.202;-77.198;2023-02-16T18:14:03;100014.03;;;43.24;11.20
50105;BME280;47690;39.202;-77.198;2023-02-16T18:17:10;100013.94;;;43.92;11.03
50105;BME280;47690;39.202;-77.198;2023-02-16T18:20:16;100018.31;;;43.93;10.90
50105;BME280;47690;39.202;-77.198;2023-02-16T18:23:26;99988.50;;;43.76;10.81
50105;BME280;47690;39.202;-77.198;2023-02-16T18:26:28;99992.47;;;43.46;11.09
50105;BME280;47690;39.202;-77.198;2023-02-16T18:29:31;99983.56;;;42.82;11.45
50105;BME280;47690;39.202;-77.198;2023-02-16T18:32:36;99961.47;;;42.73;11.66
50105;BME280;47690;39.202;-77.198;2023-02-16T18:35:41;99933.91;;;42.94;11.67
50105;BME280;47690;39.202;-77.198;2023-02-16T18:38:44;99965.75;;;42.86;11.76
50105;BME280;47690;39.202;-77.198;2023-02-16T18:41:47;99997.13;;;42.82;11.61
50105;BME280;47690;39.202;-77.198;2023-02-16T18:44:51;99988.25;;;42.87;11.44
50105;BME280;47690;39.202;-77.198;2023-02-16T18:47:56;100020.81;;;42.92;11.68
50105;BME280;47690;39.202;-77.198;2023-02-16T18:51:29;100003.72;;;43.21;11.72
50105;BME280;47690;39.202;-77.198;2023-02-16T18:54:33;100005.53;;;42.98;11.67
50105;BME280;47690;39.202;-77.198;2023-02-16T18:57:40;99971.41;;;44.43;11.12
50105;BME280;47690;39.202;-77.198;2023-02-16T19:00:47;99945.41;;;43.18;11.69
50105;BME280;47690;39.202;-77.198;2023-02-16T19:03:53;99908.91;;;43.26;11.62
50105;BME280;47690;39.202;-77.198;2023-02-16T19:06:55;99886.47;;;43.08;11.61
50105;BME280;47690;39.202;-77.198;2023-02-16T19:09:59;99883.94;;;43.19;11.97
50105;BME280;47690;39.202;-77.198;2023-02-16T19:13:03;99885.28;;;43.21;11.84
50105;BME280;47690;39.202;-77.198;2023-02-16T19:16:07;99878.03;;;43.05;11.89